Silsden, United Kingdom
Current Conditions -  °F | °C
As of 2:50 PM on Tuesday 21 Oct 2014 (Local Time) from EGNM Reporting Station
Few Clouds Few Clouds  
Wind Chill: 40°   Ceiling: Unl
Heat Index: 48°   Visibility: 6mi
Dew Point: 37°   Wind: 29mph
Humidity: 66%   Direction: 290°WNW
Pressure: 29.59"   Gusts: 41mph
Location:  53.91°N, 1.94°W
Report Text: EGNM 211350Z 29025G36KT 260V320 9999 FEW010 FEW029CB 09/03 Q1002
Loading
Personal Weather Stations






























Interactive Weather Map
Tropical Storm Tracking
New forecast layout! Learn more

10-Day Weather Forecast

Advertisements
Track Severe Weather on mobile